Brookfield, Canada
Current Conditions -  °F | °C
As of 3:00 AM on Sunday 26 Oct 2014 (Local Time) from CYHZ Reporting Station
Broken Clouds Broken Clouds  
Wind Chill: 41°   Ceiling: 500
Heat Index: 45°   Visibility: 15mi
Dew Point: 43°   Wind: 6mph
Humidity: 93%   Direction: 250°WSW
Pressure: 29.5"   Gusts: NA
Location:  45.25°N, 63.28°W
Report Text: CYHZ 260600Z 25005KT 15SM BKN005 07/06 A2950 RMK SF5 SLP994
Loading
Personal Weather Stations






























Interactive Weather Map
Tropical Storm Tracking
New forecast layout! Learn more

10-Day Weather Forecast

Advertisements
Track Severe Weather on mobile